createdAt,value
2022-12-27T00:01:11.874Z,1.69
2022-12-27T00:03:39.776Z,1.68
2022-12-27T00:06:10.704Z,1.59
2022-12-27T00:08:39.007Z,1.81
2022-12-27T00:11:09.027Z,1.77
2022-12-27T00:13:36.955Z,1.89
2022-12-27T00:16:06.208Z,1.86
2022-12-27T00:18:34.842Z,1.94
2022-12-27T00:21:04.234Z,1.79
2022-12-27T00:23:36.848Z,1.89
2022-12-27T00:26:06.306Z,1.75
2022-12-27T00:28:35.452Z,1.64
2022-12-27T00:31:05.407Z,1.68
2022-12-27T00:33:35.079Z,1.78
2022-12-27T00:36:05.628Z,1.84
2022-12-27T00:38:35.480Z,1.90
2022-12-27T00:41:04.497Z,1.91
2022-12-27T00:43:32.476Z,1.84
2022-12-27T00:46:00.569Z,1.88
2022-12-27T00:48:28.643Z,1.92
2022-12-27T00:51:00.235Z,1.95
2022-12-27T00:53:28.802Z,1.86
2022-12-27T00:55:58.892Z,1.94
2022-12-27T00:58:27.471Z,2.06
2022-12-27T01:00:55.463Z,1.96
2022-12-27T01:03:23.448Z,1.84
2022-12-27T01:05:51.450Z,1.97
2022-12-27T01:08:20.636Z,1.83
2022-12-27T01:10:48.655Z,1.68
2022-12-27T01:13:18.062Z,1.45
2022-12-27T01:15:45.982Z,1.23
2022-12-27T01:18:14.033Z,1.22
2022-12-27T01:20:41.971Z,1.26
2022-12-27T01:23:09.940Z,1.30
2022-12-27T01:25:37.928Z,1.44
2022-12-27T01:28:05.991Z,1.63
2022-12-27T01:30:35.495Z,1.69
2022-12-27T01:33:03.480Z,1.55
2022-12-27T01:35:31.482Z,1.74
2022-12-27T01:37:59.423Z,1.50
2022-12-27T01:40:27.415Z,1.24
2022-12-27T01:42:55.564Z,1.08
2022-12-27T01:45:25.204Z,1.15
2022-12-27T01:48:00.721Z,1.35
2022-12-27T01:50:33.435Z,1.49
2022-12-27T01:53:08.358Z,1.33
2022-12-27T01:55:43.088Z,1.55
2022-12-27T01:58:14.628Z,1.49
2022-12-27T02:00:45.715Z,1.48
2022-12-27T02:03:19.821Z,1.56
2022-12-27T02:05:48.054Z,1.44
2022-12-27T02:08:33.572Z,1.49
2022-12-27T02:11:02.113Z,1.19
2022-12-27T02:13:33.137Z,1.26
2022-12-27T02:16:01.269Z,1.57
2022-12-27T02:18:30.556Z,1.65
2022-12-27T02:21:16.468Z,1.69
2022-12-27T02:24:14.827Z,1.58
2022-12-27T02:26:55.588Z,1.65
2022-12-27T02:29:41.999Z,1.38
2022-12-27T02:32:14.152Z,0.96
2022-12-27T02:34:50.285Z,0.68
2022-12-27T02:37:21.203Z,0.41
2022-12-27T02:39:51.099Z,0.23
2022-12-27T02:42:39.266Z,0.12
2022-12-27T02:45:37.222Z,0.21
2022-12-27T02:48:29.428Z,0.22
2022-12-27T02:51:28.449Z,0.52
2022-12-27T02:54:10.770Z,0.54
2022-12-27T02:57:11.145Z,0.50
2022-12-27T03:00:26.630Z,0.60
2022-12-27T03:03:28.970Z,0.78
2022-12-27T03:06:38.873Z,0.69
2022-12-27T03:09:42.575Z,0.68
2022-12-27T03:12:42.683Z,0.85
2022-12-27T03:15:40.018Z,0.73
2022-12-27T03:18:14.997Z,0.87
2022-12-27T03:21:03.782Z,0.93
2022-12-27T03:23:49.534Z,1.06
2022-12-27T03:26:20.088Z,1.15
2022-12-27T03:29:08.099Z,1.02
2022-12-27T03:31:57.138Z,1.00
2022-12-27T03:34:35.918Z,0.81
2022-12-27T03:37:26.298Z,0.97
2022-12-27T03:40:02.386Z,1.06
2022-12-27T03:42:52.113Z,1.24
2022-12-27T03:45:42.461Z,1.25
2022-12-27T03:48:12.904Z,1.07
2022-12-27T03:50:45.325Z,0.75
2022-12-27T03:53:20.112Z,0.56
2022-12-27T03:55:49.053Z,0.54
2022-12-27T03:58:17.207Z,0.65
2022-12-27T04:00:45.896Z,0.56
2022-12-27T04:03:13.934Z,0.61
2022-12-27T04:05:43.276Z,0.53
2022-12-27T04:08:28.855Z,0.66
2022-12-27T04:11:14.067Z,0.82
2022-12-27T04:13:59.389Z,0.71
2022-12-27T04:16:44.812Z,0.63
2022-12-27T04:19:30.229Z,0.50
2022-12-27T04:22:17.146Z,0.40
2022-12-27T04:25:02.541Z,0.32
2022-12-27T04:27:47.852Z,0.32
2022-12-27T04:30:33.320Z,0.29
2022-12-27T04:33:18.661Z,0.36
2022-12-27T04:35:46.767Z,0.43
2022-12-27T04:38:16.162Z,0.55
2022-12-27T04:41:01.526Z,0.61
2022-12-27T04:43:46.817Z,0.62
2022-12-27T04:46:39.818Z,0.61
2022-12-27T04:49:27.998Z,0.52
2022-12-27T04:52:13.408Z,0.50
2022-12-27T04:54:57.764Z,0.62
2022-12-27T04:57:26.226Z,0.51
2022-12-27T05:00:10.991Z,0.31
2022-12-27T05:02:39.487Z,0.54
2022-12-27T05:05:08.957Z,0.47
2022-12-27T05:07:55.569Z,0.32
2022-12-27T05:10:56.784Z,0.27
2022-12-27T05:13:42.457Z,0.39
2022-12-27T05:16:10.554Z,0.60
2022-12-27T05:18:38.602Z,0.57
2022-12-27T05:21:08.046Z,0.46
2022-12-27T05:23:54.177Z,0.26
2022-12-27T05:26:25.047Z,0.53
2022-12-27T05:28:55.256Z,0.41
2022-12-27T05:31:24.737Z,0.38
2022-12-27T05:33:53.544Z,0.49
2022-12-27T05:36:22.234Z,0.64
2022-12-27T05:38:50.532Z,0.42
2022-12-27T05:41:18.825Z,0.46
2022-12-27T05:43:48.303Z,0.60
2022-12-27T05:46:17.918Z,0.65
2022-12-27T05:48:46.279Z,0.64
2022-12-27T05:51:17.665Z,0.49
2022-12-27T05:53:46.469Z,0.65
2022-12-27T05:56:16.855Z,0.62
2022-12-27T05:58:45.430Z,0.59
2022-12-27T06:01:16.803Z,0.60
2022-12-27T06:03:45.322Z,0.47
2022-12-27T06:06:14.314Z,0.45
2022-12-27T06:08:42.441Z,0.50
2022-12-27T06:11:12.436Z,0.67
2022-12-27T06:13:41.712Z,0.78
2022-12-27T06:16:12.091Z,0.90
2022-12-27T06:18:42.853Z,0.69
2022-12-27T06:21:12.762Z,0.82
2022-12-27T06:23:42.693Z,0.95
2022-12-27T06:26:13.291Z,0.38
2022-12-27T06:28:41.173Z,0.06
2022-12-27T06:31:09.112Z,0.16
2022-12-27T06:33:37.045Z,0.17
2022-12-27T06:36:10.123Z,0.36
2022-12-27T06:38:41.233Z,0.46
2022-12-27T06:41:11.803Z,0.70
2022-12-27T06:43:41.213Z,0.56
2022-12-27T06:46:16.994Z,0.63
2022-12-27T06:48:45.681Z,0.82
2022-12-27T06:51:16.814Z,1.63
2022-12-27T06:53:44.774Z,1.52
2022-12-27T06:56:16.639Z,1.03
2022-12-27T06:58:44.813Z,0.97
2022-12-27T07:01:15.443Z,1.26
2022-12-27T07:03:43.933Z,1.57
2022-12-27T07:06:12.986Z,1.64
2022-12-27T07:08:42.395Z,1.39
2022-12-27T07:11:12.627Z,1.19
2022-12-27T07:13:42.944Z,1.35
2022-12-27T07:16:13.377Z,1.65
2022-12-27T07:18:41.820Z,1.62
2022-12-27T07:21:12.074Z,2.05
2022-12-27T07:23:40.459Z,1.96
2022-12-27T07:26:11.765Z,1.47
2022-12-27T07:28:39.988Z,2.23
2022-12-27T07:31:09.358Z,2.53
2022-12-27T07:33:38.245Z,2.53
2022-12-27T07:36:09.006Z,2.57
2022-12-27T07:38:37.214Z,2.97
2022-12-27T07:41:06.085Z,3.37
2022-12-27T07:43:36.530Z,3.44
2022-12-27T07:46:08.919Z,3.38
2022-12-27T07:48:37.272Z,4.13
2022-12-27T07:51:05.637Z,3.86
2022-12-27T07:53:34.088Z,4.10
2022-12-27T07:56:07.819Z,3.93
2022-12-27T07:58:41.834Z,3.71
2022-12-27T08:01:10.814Z,3.93
2022-12-27T08:03:39.913Z,3.74
2022-12-27T08:06:09.531Z,4.10
2022-12-27T08:08:40.660Z,4.29
2022-12-27T08:11:08.762Z,4.16
2022-12-27T08:13:36.828Z,4.46
2022-12-27T08:16:07.552Z,4.55
2022-12-27T08:18:35.495Z,4.54
2022-12-27T08:21:03.422Z,4.63
2022-12-27T08:23:31.451Z,4.49
2022-12-27T08:25:59.344Z,4.58
2022-12-27T08:28:28.278Z,4.44
2022-12-27T08:30:56.180Z,4.54
2022-12-27T08:33:25.668Z,4.80
2022-12-27T08:35:54.802Z,4.83
2022-12-27T08:38:23.321Z,4.92
2022-12-27T08:40:51.262Z,4.94
2022-12-27T08:43:19.307Z,4.88
2022-12-27T08:45:47.364Z,5.10
2022-12-27T08:48:15.877Z,5.23
2022-12-27T08:50:45.207Z,5.48
2022-12-27T08:53:13.144Z,5.69
2022-12-27T08:55:41.119Z,6.11
2022-12-27T08:58:15.788Z,6.45
2022-12-27T09:00:44.481Z,6.52
2022-12-27T09:03:12.607Z,6.93
2022-12-27T09:05:42.173Z,7.07
2022-12-27T09:08:12.152Z,6.96
2022-12-27T09:10:40.482Z,6.61
2022-12-27T09:13:08.704Z,6.75
2022-12-27T09:15:38.319Z,7.00
2022-12-27T09:18:07.866Z,7.38
2022-12-27T09:20:35.826Z,7.45
2022-12-27T09:23:03.764Z,7.52
2022-12-27T09:25:34.174Z,7.48
2022-12-27T09:28:02.226Z,7.49
2022-12-27T09:30:30.145Z,7.67
2022-12-27T09:32:59.167Z,8.02
2022-12-27T09:35:27.162Z,7.90
2022-12-27T09:37:55.892Z,7.70
2022-12-27T09:40:23.989Z,7.82
2022-12-27T09:43:10.675Z,8.12
2022-12-27T09:45:49.359Z,8.73
2022-12-27T09:48:31.034Z,9.18
2022-12-27T09:51:06.488Z,9.30
2022-12-27T09:53:43.810Z,9.22
2022-12-27T09:56:14.181Z,9.20
2022-12-27T09:58:48.041Z,9.14
2022-12-27T10:01:23.213Z,9.26
2022-12-27T10:03:51.672Z,9.38
2022-12-27T10:06:46.760Z,9.44
2022-12-27T10:09:36.982Z,9.74
2022-12-27T10:12:18.919Z,9.95
2022-12-27T10:15:04.553Z,9.86
2022-12-27T10:17:51.157Z,10.09
2022-12-27T10:20:31.343Z,10.14
2022-12-27T10:23:06.377Z,10.37
2022-12-27T10:25:36.673Z,10.40
2022-12-27T10:28:14.756Z,10.73
2022-12-27T10:30:44.810Z,10.78
2022-12-27T10:33:22.234Z,10.87
2022-12-27T10:35:50.503Z,11.10
2022-12-27T10:38:18.453Z,11.17
2022-12-27T10:40:55.565Z,11.16
2022-12-27T10:43:28.114Z,11.49
2022-12-27T10:46:12.111Z,11.69
2022-12-27T10:49:20.007Z,11.76
2022-12-27T10:51:34.602Z,11.81
2022-12-27T10:54:04.337Z,11.93
2022-12-27T10:56:35.320Z,12.14
2022-12-27T10:59:12.601Z,12.22
2022-12-27T11:01:42.550Z,11.98
2022-12-27T11:04:20.740Z,11.91
2022-12-27T11:06:51.766Z,12.17
2022-12-27T11:09:26.865Z,12.25
2022-12-27T11:12:13.548Z,12.09
2022-12-27T11:14:41.623Z,12.04
2022-12-27T11:17:12.603Z,12.06
2022-12-27T11:19:47.077Z,12.15
2022-12-27T11:22:15.401Z,12.37
2022-12-27T11:24:47.421Z,12.50
2022-12-27T11:27:24.765Z,12.78
2022-12-27T11:29:54.461Z,12.93
2022-12-27T11:32:24.507Z,12.98
2022-12-27T11:34:55.282Z,13.19
2022-12-27T11:37:27.121Z,13.38
2022-12-27T11:39:56.812Z,13.38
2022-12-27T11:42:32.629Z,13.61
2022-12-27T11:45:12.437Z,13.56
2022-12-27T11:47:48.645Z,13.66
2022-12-27T11:50:52.263Z,13.80
2022-12-27T11:53:55.855Z,14.05
2022-12-27T11:56:28.119Z,14.15
2022-12-27T11:59:32.109Z,14.31
2022-12-27T12:02:27.106Z,14.45
2022-12-27T12:05:37.714Z,14.64
2022-12-27T12:08:36.689Z,14.84
2022-12-27T12:11:16.580Z,14.94
2022-12-27T12:14:06.775Z,15.11
2022-12-27T12:16:52.619Z,15.10
2022-12-27T12:19:45.253Z,15.08
2022-12-27T12:22:31.254Z,15.10
2022-12-27T12:25:33.565Z,15.00
2022-12-27T12:28:56.932Z,15.18
2022-12-27T12:31:37.721Z,15.30
2022-12-27T12:34:19.903Z,15.40
2022-12-27T12:37:06.180Z,15.58
2022-12-27T12:39:54.211Z,15.53
2022-12-27T12:42:29.388Z,15.46
2022-12-27T12:45:25.161Z,15.58
2022-12-27T12:48:08.753Z,15.64
2022-12-27T12:50:58.884Z,15.88
2022-12-27T12:53:47.266Z,16.06
2022-12-27T12:56:33.990Z,16.26
2022-12-27T12:59:18.019Z,16.30
2022-12-27T13:02:02.502Z,16.48
2022-12-27T13:04:44.063Z,16.42
2022-12-27T13:07:36.223Z,16.48
2022-12-27T13:10:35.603Z,16.70
2022-12-27T13:13:13.714Z,16.69
2022-12-27T13:15:58.063Z,16.71
2022-12-27T13:18:36.509Z,16.85
2022-12-27T13:21:10.693Z,16.85
2022-12-27T13:24:00.819Z,16.87
2022-12-27T13:26:41.957Z,16.90
2022-12-27T13:29:40.398Z,16.99
2022-12-27T13:32:16.558Z,17.02
2022-12-27T13:34:55.845Z,16.85
2022-12-27T13:37:38.635Z,16.94
2022-12-27T13:40:29.319Z,16.86
2022-12-27T13:43:23.212Z,16.79
2022-12-27T13:46:08.065Z,16.64
2022-12-27T13:48:56.167Z,16.71
2022-12-27T13:51:44.157Z,16.58
2022-12-27T13:54:46.408Z,16.33
2022-12-27T13:57:32.210Z,16.26
2022-12-27T14:00:17.298Z,16.21
2022-12-27T14:03:13.565Z,16.17
2022-12-27T14:06:22.824Z,15.99
2022-12-27T14:09:47.432Z,15.77
2022-12-27T14:12:39.854Z,15.75
2022-12-27T14:15:13.877Z,15.81
2022-12-27T14:17:50.405Z,15.53
2022-12-27T14:20:42.343Z,15.78
2022-12-27T14:23:27.797Z,15.80
2022-12-27T14:26:39.118Z,15.80
2022-12-27T14:29:46.121Z,15.85
2022-12-27T14:33:11.501Z,15.72
2022-12-27T14:36:20.309Z,15.60
2022-12-27T14:39:16.140Z,15.55
2022-12-27T14:42:19.242Z,15.45
2022-12-27T14:45:28.003Z,15.13
2022-12-27T14:48:36.354Z,15.07
2022-12-27T14:55:10.836Z,14.85
2022-12-27T14:57:49.895Z,14.75
2022-12-27T15:00:20.560Z,14.71
2022-12-27T15:03:20.104Z,14.72
2022-12-27T15:06:04.056Z,14.54
2022-12-27T15:08:51.534Z,14.49
2022-12-27T15:11:44.827Z,14.42
2022-12-27T15:14:30.599Z,14.16
2022-12-27T15:17:14.227Z,14.08
2022-12-27T15:20:01.769Z,14.03
2022-12-27T15:22:43.639Z,13.88
2022-12-27T15:25:25.877Z,13.84
2022-12-27T15:28:02.640Z,13.70
2022-12-27T15:30:39.381Z,13.73
2022-12-27T15:33:17.856Z,13.82
2022-12-27T15:35:57.020Z,13.59
2022-12-27T15:38:52.898Z,13.35
2022-12-27T15:41:49.250Z,13.39
2022-12-27T15:44:51.910Z,13.31
2022-12-27T15:47:38.917Z,13.26
2022-12-27T15:50:29.706Z,13.23
2022-12-27T15:53:17.630Z,13.36
2022-12-27T15:56:08.871Z,13.29
2022-12-27T15:58:38.937Z,13.32
2022-12-27T16:01:30.315Z,13.30
2022-12-27T16:03:59.813Z,13.15
2022-12-27T16:07:00.558Z,13.25
2022-12-27T16:09:39.504Z,13.25
2022-12-27T16:12:13.266Z,13.19
2022-12-27T16:14:44.752Z,13.24
2022-12-27T16:17:38.205Z,13.21
2022-12-27T16:20:17.930Z,13.23
2022-12-27T16:22:52.571Z,13.13
2022-12-27T16:25:31.823Z,13.17
2022-12-27T16:28:07.637Z,13.20
2022-12-27T16:30:45.149Z,13.04
2022-12-27T16:33:31.174Z,13.04
2022-12-27T16:36:24.487Z,12.97
2022-12-27T16:39:30.927Z,12.78
2022-12-27T16:42:08.809Z,12.90
2022-12-27T16:45:09.845Z,12.94
2022-12-27T16:47:59.415Z,12.70
2022-12-27T16:51:03.529Z,12.71
2022-12-27T16:54:03.121Z,12.56
2022-12-27T16:56:32.720Z,12.66
2022-12-27T16:59:02.207Z,12.64
2022-12-27T17:02:00.055Z,12.52
2022-12-27T17:04:56.638Z,12.56
2022-12-27T17:08:09.947Z,12.58
2022-12-27T17:10:58.006Z,12.40
2022-12-27T17:13:35.563Z,12.45
2022-12-27T17:16:10.129Z,12.24
2022-12-27T17:18:47.174Z,12.32
2022-12-27T17:21:29.459Z,12.32
2022-12-27T17:24:01.059Z,12.27
2022-12-27T17:26:50.895Z,12.32
2022-12-27T17:29:48.499Z,12.26
2022-12-27T17:32:29.131Z,12.14
2022-12-27T17:35:08.012Z,12.20
2022-12-27T17:37:47.475Z,12.12
2022-12-27T17:40:29.218Z,12.00
2022-12-27T17:43:27.152Z,12.10
2022-12-27T17:46:01.094Z,12.10
2022-12-27T17:48:30.724Z,12.13
2022-12-27T17:51:03.998Z,12.10
2022-12-27T17:53:51.136Z,12.09
2022-12-27T17:56:39.188Z,12.02
2022-12-27T17:59:11.079Z,12.11
2022-12-27T18:01:44.625Z,12.14
2022-12-27T18:04:23.070Z,12.15
2022-12-27T18:06:55.675Z,12.14
2022-12-27T18:09:37.409Z,12.13
2022-12-27T18:12:12.478Z,12.15
2022-12-27T18:14:40.614Z,12.21
2022-12-27T18:17:15.863Z,12.11
2022-12-27T18:19:43.862Z,12.00
2022-12-27T18:22:20.029Z,12.14
2022-12-27T18:24:49.388Z,12.10
2022-12-27T18:27:19.980Z,11.94
2022-12-27T18:29:48.589Z,11.77
2022-12-27T18:32:19.509Z,11.82
2022-12-27T18:34:52.451Z,11.85
2022-12-27T18:37:23.152Z,11.95
2022-12-27T18:39:54.383Z,11.95
2022-12-27T18:42:29.206Z,11.87
2022-12-27T18:45:02.015Z,11.91
2022-12-27T18:47:34.360Z,11.87
2022-12-27T18:50:05.855Z,11.91
2022-12-27T18:52:35.830Z,11.70
2022-12-27T18:55:16.987Z,11.75
2022-12-27T18:57:45.488Z,11.62
2022-12-27T19:00:22.364Z,11.64
2022-12-27T19:02:51.947Z,11.61
2022-12-27T19:05:31.273Z,11.60
2022-12-27T19:08:10.021Z,11.53
2022-12-27T19:10:47.268Z,11.59
2022-12-27T19:13:22.534Z,11.53
2022-12-27T19:15:51.572Z,11.46
2022-12-27T19:18:26.343Z,11.45
2022-12-27T19:20:58.194Z,11.41
2022-12-27T19:23:32.455Z,11.24
2022-12-27T19:26:05.866Z,11.22
2022-12-27T19:28:34.838Z,11.29
2022-12-27T19:31:19.481Z,11.33
2022-12-27T19:33:51.604Z,11.24
2022-12-27T19:36:22.909Z,11.26
2022-12-27T19:38:51.062Z,11.26
2022-12-27T19:41:20.661Z,11.17
2022-12-27T19:43:48.885Z,11.23
2022-12-27T19:46:19.224Z,11.20
2022-12-27T19:49:01.118Z,11.06
2022-12-27T19:51:37.290Z,11.12
2022-12-27T19:54:08.876Z,11.10
2022-12-27T19:56:38.234Z,11.00
2022-12-27T19:59:06.662Z,10.93
2022-12-27T20:01:35.025Z,10.98
2022-12-27T20:04:03.101Z,10.76
2022-12-27T20:06:31.031Z,10.65
2022-12-27T20:08:59.073Z,10.46
2022-12-27T20:11:27.875Z,10.73
2022-12-27T20:13:57.123Z,10.39
2022-12-27T20:16:25.242Z,10.02
2022-12-27T20:18:53.508Z,9.72
2022-12-27T20:21:21.974Z,9.51
2022-12-27T20:23:50.958Z,9.50
2022-12-27T20:26:20.920Z,9.36
2022-12-27T20:28:49.244Z,9.29
2022-12-27T20:31:22.113Z,9.16
2022-12-27T20:33:52.749Z,8.92
2022-12-27T20:36:20.736Z,8.92
2022-12-27T20:38:48.824Z,8.86
2022-12-27T20:41:19.359Z,8.87
2022-12-27T20:43:47.522Z,8.87
2022-12-27T20:46:17.789Z,8.87
2022-12-27T20:48:48.280Z,8.87
2022-12-27T20:51:17.676Z,8.88
2022-12-27T20:53:46.788Z,8.90
2022-12-27T20:56:15.863Z,9.26
2022-12-27T20:58:44.024Z,9.45
2022-12-27T21:01:14.260Z,9.54
2022-12-27T21:03:42.693Z,9.59
2022-12-27T21:06:14.003Z,9.49
2022-12-27T21:08:47.859Z,9.57
2022-12-27T21:11:22.632Z,9.43
2022-12-27T21:13:50.778Z,9.17
2022-12-27T21:16:21.138Z,9.14
2022-12-27T21:18:49.827Z,9.15
2022-12-27T21:21:21.825Z,9.13
2022-12-27T21:23:50.788Z,9.15
2022-12-27T21:26:20.449Z,8.86
2022-12-27T21:28:49.017Z,9.42
2022-12-27T21:31:18.270Z,9.20
2022-12-27T21:33:46.668Z,9.06
2022-12-27T21:36:17.281Z,9.22
2022-12-27T21:38:46.921Z,9.24
2022-12-27T21:41:17.038Z,9.19
2022-12-27T21:43:45.991Z,9.25
2022-12-27T21:46:16.364Z,9.17
2022-12-27T21:48:44.731Z,9.20
2022-12-27T21:51:14.270Z,9.23
2022-12-27T21:53:43.293Z,9.22
2022-12-27T21:56:14.289Z,9.18
2022-12-27T21:58:43.435Z,8.82
2022-12-27T22:01:14.491Z,8.92
2022-12-27T22:03:44.505Z,8.96
2022-12-27T22:06:14.074Z,8.82
2022-12-27T22:08:43.352Z,8.74
2022-12-27T22:11:13.637Z,8.68
2022-12-27T22:13:42.161Z,8.65
2022-12-27T22:16:16.043Z,8.50
2022-12-27T22:18:45.232Z,8.60
2022-12-27T22:21:15.549Z,8.71
2022-12-27T22:23:46.536Z,8.73
2022-12-27T22:26:18.192Z,8.69
2022-12-27T22:28:54.007Z,8.61
2022-12-27T22:31:23.815Z,8.55
2022-12-27T22:33:52.314Z,8.52
2022-12-27T22:36:22.247Z,8.58
2022-12-27T22:38:51.416Z,8.73
2022-12-27T22:41:22.555Z,8.66
2022-12-27T22:43:52.420Z,8.79
2022-12-27T22:46:21.438Z,8.88
2022-12-27T22:48:53.511Z,9.01
2022-12-27T22:51:23.245Z,8.96
2022-12-27T22:53:52.037Z,8.74
2022-12-27T22:56:23.890Z,8.58
2022-12-27T22:58:52.256Z,8.41
2022-12-27T23:01:22.560Z,8.35
2022-12-27T23:03:51.985Z,8.24
2022-12-27T23:06:20.118Z,8.31
2022-12-27T23:09:01.903Z,8.14
2022-12-27T23:11:33.060Z,8.35
2022-12-27T23:14:02.598Z,8.37
2022-12-27T23:16:36.913Z,8.63
2022-12-27T23:19:05.014Z,8.75
2022-12-27T23:21:33.068Z,8.88
2022-12-27T23:24:01.103Z,8.97
2022-12-27T23:26:29.280Z,8.94
2022-12-27T23:28:59.632Z,9.03
2022-12-27T23:31:28.243Z,8.96
2022-12-27T23:33:56.791Z,8.93
2022-12-27T23:36:25.614Z,9.08
2022-12-27T23:38:55.598Z,9.07
2022-12-27T23:41:25.776Z,9.14
2022-12-27T23:43:56.206Z,9.25
2022-12-27T23:46:28.572Z,9.32
2022-12-27T23:48:57.486Z,9.32
2022-12-27T23:51:25.860Z,9.33
2022-12-27T23:53:53.924Z,9.26
2022-12-27T23:56:24.083Z,9.25
2022-12-27T23:58:54.359Z,9.28
